Time;durP1;ratioP1;P1;durP2;ratioP2;P2;SDS_P1;SDS_P2;PMS_P1;PMS_P2;Temp;Humidity;BMP_temperature;BMP_pressure;BME280_temperature;BME280_humidity;BME280_pressure;Samples;Min_cycle;Max_cycle;Signal;HPM_P1;HPM_P2
2023/09/20 00:02:03;;;;;;;0.00;0.00;;;22.50;99.90;;;;;;5050406;28;20850;-79
2023/09/20 00:04:35;;;;;;;0.00;0.00;;;22.50;99.90;;;;;;5051895;28;20217;-77
2023/09/20 00:07:03;;;;;;;0.00;0.00;;;22.50;99.90;;;;;;5048451;28;20924;-78
2023/09/20 00:09:30;;;;;;;0.00;0.00;;;22.50;99.90;;;;;;5067051;28;20191;-78
2023/09/20 00:11:57;;;;;;;0.00;0.00;;;22.50;99.90;;;;;;5052431;28;20806;-78
2023/09/20 00:14:23;;;;;;;0.00;0.00;;;22.50;99.90;;;;;;5085921;28;20285;-76
2023/09/20 00:16:52;;;;;;;0.00;0.00;;;22.50;99.90;;;;;;5065027;28;20245;-79
2023/09/20 00:19:19;;;;;;;0.00;0.00;;;22.50;99.90;;;;;;5062852;28;20268;-78
2023/09/20 00:21:46;;;;;;;0.00;0.00;;;22.50;99.90;;;;;;5068664;28;20273;-77
2023/09/20 00:24:14;;;;;;;0.00;0.00;;;22.50;99.90;;;;;;5067355;28;20199;-77
2023/09/20 00:26:41;;;;;;;0.00;0.00;;;22.40;99.90;;;;;;5041365;28;20248;-77
2023/09/20 00:29:08;;;;;;;0.00;0.00;;;22.30;99.90;;;;;;5067646;28;20187;-76
2023/09/20 00:31:37;;;;;;;0.00;0.00;;;22.30;99.90;;;;;;5052106;28;20213;-77
2023/09/20 00:34:05;;;;;;;0.00;0.00;;;22.30;99.90;;;;;;5091573;28;20179;-76
2023/09/20 00:36:32;;;;;;;0.00;0.00;;;22.30;99.90;;;;;;5083164;28;20358;-76
2023/09/20 00:38:58;;;;;;;0.00;0.00;;;22.30;99.90;;;;;;5057187;28;20183;-76
2023/09/20 00:41:25;;;;;;;0.00;0.00;;;22.30;99.90;;;;;;5032918;28;20249;-76
2023/09/20 00:43:52;;;;;;;0.00;0.00;;;22.30;99.90;;;;;;5067000;28;20795;-76
2023/09/20 00:46:26;;;;;;;0.00;0.00;;;22.30;99.90;;;;;;5063437;28;20195;-79
2023/09/20 00:48:55;;;;;;;0.00;0.00;;;22.20;99.90;;;;;;5049389;28;20214;-79
2023/09/20 00:51:26;;;;;;;0.00;0.00;;;22.20;99.90;;;;;;5051870;28;20263;-79
2023/09/20 00:53:55;;;;;;;0.00;0.00;;;22.30;99.90;;;;;;5066096;28;20182;-79
2023/09/20 00:56:23;;;;;;;0.00;0.00;;;22.20;99.90;;;;;;5042131;28;20278;-79
2023/09/20 00:58:50;;;;;;;0.00;0.00;;;22.20;99.90;;;;;;5036127;28;20237;-79
2023/09/20 01:01:17;;;;;;;0.00;0.00;;;22.20;99.90;;;;;;5047692;28;20191;-79
2023/09/20 01:03:47;;;;;;;0.00;0.00;;;22.20;99.90;;;;;;5034550;28;20726;-79
2023/09/20 01:06:15;;;;;;;0.00;0.00;;;22.20;99.90;;;;;;5079371;28;20226;-79
2023/09/20 01:08:50;;;;;;;0.00;0.00;;;22.20;99.90;;;;;;5054190;28;20191;-79
2023/09/20 01:11:30;;;;;;;0.00;0.00;;;22.20;99.90;;;;;;5043971;28;20324;-79
2023/09/20 01:14:11;;;;;;;0.00;0.00;;;22.20;99.90;;;;;;5066990;28;20248;-79
2023/09/20 01:16:46;;;;;;;0.00;0.00;;;22.10;99.90;;;;;;5089113;28;20227;-80
2023/09/20 01:19:16;;;;;;;0.00;0.00;;;22.10;99.90;;;;;;5055801;28;20232;-79
2023/09/20 01:21:43;;;;;;;0.00;0.00;;;22.10;99.90;;;;;;5067132;28;20231;-78
2023/09/20 01:24:28;;;;;;;0.00;0.00;;;22.10;99.90;;;;;;5040621;28;20224;-78
2023/09/20 01:27:04;;;;;;;0.00;0.00;;;22.00;99.90;;;;;;5063609;28;20190;-78
2023/09/20 01:29:31;;;;;;;0.00;0.00;;;22.00;99.90;;;;;;5050932;28;20199;-78
2023/09/20 01:32:02;;;;;;;0.00;0.00;;;22.00;99.90;;;;;;5035656;28;20218;-79
2023/09/20 01:34:30;;;;;;;0.00;0.00;;;22.00;99.90;;;;;;5071022;28;20277;-79
2023/09/20 01:36:57;;;;;;;0.00;0.00;;;22.00;99.90;;;;;;5069602;28;20648;-80
2023/09/20 01:39:24;;;;;;;0.00;0.00;;;21.90;99.90;;;;;;5048735;28;20565;-81
2023/09/20 01:41:52;;;;;;;0.00;0.00;;;21.90;99.90;;;;;;5070950;28;20187;-81
2023/09/20 01:44:22;;;;;;;0.00;0.00;;;21.80;99.90;;;;;;5058759;28;20196;-82
2023/09/20 01:46:48;;;;;;;0.00;0.00;;;21.80;99.90;;;;;;5048630;28;20195;-81
2023/09/20 01:49:17;;;;;;;0.00;0.00;;;21.80;99.90;;;;;;5083854;28;20202;-81
2023/09/20 01:51:45;;;;;;;0.00;0.00;;;21.80;99.90;;;;;;5061989;28;20206;-80
2023/09/20 01:54:11;;;;;;;0.00;0.00;;;21.80;99.90;;;;;;5084052;28;20183;-80
2023/09/20 01:56:44;;;;;;;0.00;0.00;;;21.80;99.90;;;;;;5084145;28;20218;-79
2023/09/20 01:59:10;;;;;;;0.00;0.00;;;21.80;99.90;;;;;;5070154;28;20182;-79
2023/09/20 02:01:37;;;;;;;0.00;0.00;;;21.70;99.90;;;;;;5048124;28;20193;-78
2023/09/20 02:04:05;;;;;;;0.00;0.00;;;21.70;99.90;;;;;;5059837;28;20195;-77
2023/09/20 02:06:32;;;;;;;0.00;0.00;;;21.80;99.90;;;;;;5077463;28;20217;-77
2023/09/20 02:08:58;;;;;;;0.00;0.00;;;21.80;99.90;;;;;;5084132;28;20641;-78
2023/09/20 02:11:24;;;;;;;0.00;0.00;;;21.80;99.90;;;;;;5061887;28;20307;-79
2023/09/20 02:13:51;;;;;;;0.00;0.00;;;21.80;99.90;;;;;;5060473;28;20184;-79
2023/09/20 02:16:17;;;;;;;0.00;0.00;;;21.80;99.90;;;;;;5063467;28;20210;-79
2023/09/20 02:18:44;;;;;;;0.00;0.00;;;21.90;99.90;;;;;;5089851;28;20215;-79
2023/09/20 02:21:10;;;;;;;0.00;0.00;;;21.80;99.90;;;;;;5029840;28;20251;-79
2023/09/20 02:23:36;;;;;;;0.00;0.00;;;21.80;99.90;;;;;;5048402;28;20586;-79
2023/09/20 02:26:02;;;;;;;0.00;0.00;;;21.80;99.90;;;;;;5050573;28;20592;-79
2023/09/20 02:28:29;;;;;;;0.00;0.00;;;21.80;99.90;;;;;;5069458;28;20243;-79
2023/09/20 02:30:55;;;;;;;0.00;0.00;;;21.80;99.90;;;;;;5084830;28;20257;-79
2023/09/20 02:33:21;;;;;;;0.00;0.00;;;21.80;99.90;;;;;;5046573;28;20210;-79
2023/09/20 02:35:48;;;;;;;0.00;0.00;;;21.80;99.90;;;;;;5068337;28;20190;-79
2023/09/20 02:38:14;;;;;;;0.00;0.00;;;21.80;99.90;;;;;;5089683;28;20186;-79
2023/09/20 02:40:41;;;;;;;0.00;0.00;;;21.70;99.90;;;;;;5069257;28;20198;-79
2023/09/20 02:43:12;;;;;;;0.00;0.00;;;21.70;99.90;;;;;;5068211;28;20244;-79
2023/09/20 02:45:40;;;;;;;0.00;0.00;;;21.70;99.90;;;;;;5054237;28;20193;-79
2023/09/20 02:48:07;;;;;;;0.00;0.00;;;21.70;99.90;;;;;;5072391;28;20293;-79
2023/09/20 02:50:34;;;;;;;0.00;0.00;;;21.60;99.90;;;;;;5085551;28;20658;-79
2023/09/20 02:53:00;;;;;;;0.00;0.00;;;21.60;99.90;;;;;;5056223;28;20306;-80
2023/09/20 02:55:28;;;;;;;0.00;0.00;;;21.60;99.90;;;;;;5055155;28;20183;-79
2023/09/20 02:57:54;;;;;;;0.00;0.00;;;21.60;99.90;;;;;;5071875;28;20182;-78
2023/09/20 03:00:27;;;;;;;0.00;0.00;;;21.60;99.90;;;;;;5076222;28;20197;-78
2023/09/20 03:03:00;;;;;;;0.00;0.00;;;21.50;99.90;;;;;;5074144;28;20194;-78
2023/09/20 03:05:32;;;;;;;0.00;0.00;;;21.40;99.90;;;;;;5054686;28;20187;-78
2023/09/20 03:08:04;;;;;;;0.00;0.00;;;21.30;99.90;;;;;;5071625;28;20300;-78
2023/09/20 03:10:31;;;;;;;0.00;0.00;;;21.20;99.90;;;;;;5070992;28;20190;-77
2023/09/20 03:12:59;;;;;;;0.00;0.00;;;21.10;99.90;;;;;;5084676;28;20222;-79
2023/09/20 03:15:27;;;;;;;0.00;0.00;;;21.20;99.90;;;;;;5087941;28;20273;-78
2023/09/20 03:18:00;;;;;;;0.00;0.00;;;21.10;99.90;;;;;;5080406;28;20197;-77
2023/09/20 03:20:26;;;;;;;0.00;0.00;;;21.10;99.90;;;;;;5052560;28;20270;-78
2023/09/20 03:23:06;;;;;;;0.00;0.00;;;21.10;99.90;;;;;;5053440;28;20646;-77
2023/09/20 03:25:36;;;;;;;0.00;0.00;;;21.10;99.90;;;;;;5051954;28;20202;-80
2023/09/20 03:28:35;;;;;;;0.00;0.00;;;21.20;99.90;;;;;;5070012;28;20187;-80
2023/09/20 03:31:11;;;;;;;0.00;0.00;;;21.20;99.90;;;;;;5080598;28;20279;-79
2023/09/20 03:33:38;;;;;;;0.00;0.00;;;21.20;99.90;;;;;;5050501;28;20184;-78
2023/09/20 03:36:15;;;;;;;0.00;0.00;;;21.20;99.90;;;;;;5069045;28;20183;-77
2023/09/20 03:38:41;;;;;;;0.00;0.00;;;21.20;99.90;;;;;;5083976;28;20182;-76
2023/09/20 03:41:09;;;;;;;0.00;0.00;;;21.20;99.90;;;;;;5039306;28;20305;-77
2023/09/20 03:43:40;;;;;;;0.00;0.00;;;21.20;99.90;;;;;;5068255;28;20198;-77
2023/09/20 03:46:06;;;;;;;0.00;0.00;;;21.30;99.90;;;;;;5034695;28;20282;-77
2023/09/20 03:48:33;;;;;;;0.00;0.00;;;21.30;99.90;;;;;;5040594;28;20187;-77
2023/09/20 03:50:59;;;;;;;0.00;0.00;;;21.30;99.90;;;;;;5045140;28;20284;-77
2023/09/20 03:53:25;;;;;;;0.00;0.00;;;21.30;99.90;;;;;;5057519;28;20254;-76
2023/09/20 03:55:52;;;;;;;0.00;0.00;;;21.40;99.90;;;;;;5082344;28;20214;-78
2023/09/20 03:58:20;;;;;;;0.00;0.00;;;21.40;99.90;;;;;;5049152;28;20194;-78
2023/09/20 04:00:47;;;;;;;0.00;0.00;;;21.40;99.90;;;;;;5047794;28;20337;-78
2023/09/20 04:03:13;;;;;;;0.00;0.00;;;21.40;99.90;;;;;;5059136;28;20663;-78
2023/09/20 04:05:40;;;;;;;0.00;0.00;;;21.40;99.90;;;;;;5061452;28;20183;-78
2023/09/20 04:08:06;;;;;;;0.00;0.00;;;21.40;99.90;;;;;;5048652;28;20195;-78
2023/09/20 04:10:34;;;;;;;0.00;0.00;;;21.40;99.90;;;;;;5062670;28;20525;-78
2023/09/20 04:13:00;;;;;;;0.00;0.00;;;21.50;99.90;;;;;;5052445;28;20245;-78
2023/09/20 04:15:26;;;;;;;0.00;0.00;;;21.50;99.90;;;;;;5046375;28;20191;-79
2023/09/20 04:17:53;;;;;;;0.00;0.00;;;21.50;99.90;;;;;;5034235;28;20176;-78
2023/09/20 04:20:20;;;;;;;0.00;0.00;;;21.50;99.90;;;;;;5075963;28;20190;-79
2023/09/20 04:22:49;;;;;;;0.00;0.00;;;21.50;99.90;;;;;;5053689;28;20223;-80
2023/09/20 04:25:17;;;;;;;0.00;0.00;;;21.40;99.90;;;;;;5085463;28;20289;-80
2023/09/20 04:27:43;;;;;;;0.00;0.00;;;21.40;99.90;;;;;;5086421;28;20353;-79
2023/09/20 04:30:14;;;;;;;0.00;0.00;;;21.30;99.90;;;;;;5046761;28;20769;-79
2023/09/20 04:32:40;;;;;;;0.00;0.00;;;21.30;99.90;;;;;;5052724;28;20211;-79
2023/09/20 04:35:07;;;;;;;0.00;0.00;;;21.30;99.90;;;;;;5052954;28;20806;-76
2023/09/20 04:37:33;;;;;;;0.00;0.00;;;21.40;99.90;;;;;;5077466;28;20224;-76
2023/09/20 04:39:59;;;;;;;0.00;0.00;;;21.40;99.90;;;;;;5040044;28;20303;-78
2023/09/20 04:42:27;;;;;;;0.00;0.00;;;21.40;99.90;;;;;;5097164;28;20666;-78
2023/09/20 04:44:53;;;;;;;0.00;0.00;;;21.40;99.90;;;;;;5089255;28;20285;-77
2023/09/20 04:47:20;;;;;;;0.00;0.00;;;21.40;99.90;;;;;;5070644;28;20271;-78
2023/09/20 04:49:48;;;;;;;0.00;0.00;;;21.50;99.90;;;;;;5038283;28;20840;-78
2023/09/20 04:52:15;;;;;;;0.00;0.00;;;21.50;99.90;;;;;;5058728;28;20572;-79
2023/09/20 04:54:43;;;;;;;0.00;0.00;;;21.50;99.90;;;;;;5069472;28;20294;-79
2023/09/20 04:57:13;;;;;;;0.00;0.00;;;21.50;99.90;;;;;;5076016;28;20828;-78
2023/09/20 04:59:40;;;;;;;0.00;0.00;;;21.60;99.90;;;;;;5064210;28;20845;-79
2023/09/20 05:02:08;;;;;;;0.00;0.00;;;21.60;99.90;;;;;;5089587;28;20190;-79
2023/09/20 05:04:38;;;;;;;0.00;0.00;;;21.70;99.90;;;;;;5042205;28;20238;-78
2023/09/20 05:07:05;;;;;;;0.00;0.00;;;21.70;99.90;;;;;;5072332;28;20193;-77
2023/09/20 05:09:33;;;;;;;0.00;0.00;;;21.80;99.90;;;;;;5050945;28;20191;-78
2023/09/20 05:11:59;;;;;;;0.00;0.00;;;21.80;99.90;;;;;;5052480;28;20245;-78
2023/09/20 05:14:25;;;;;;;0.00;0.00;;;21.90;99.90;;;;;;5049481;28;20230;-78
2023/09/20 05:16:51;;;;;;;0.00;0.00;;;21.90;99.90;;;;;;5068887;28;20199;-78
2023/09/20 05:19:17;;;;;;;0.00;0.00;;;21.90;99.90;;;;;;5069244;28;20878;-78
2023/09/20 05:21:44;;;;;;;0.00;0.00;;;22.00;99.90;;;;;;5070933;28;20863;-78
2023/09/20 05:24:10;;;;;;;0.00;0.00;;;22.10;99.90;;;;;;5064280;28;20649;-78
2023/09/20 05:26:36;;;;;;;0.00;0.00;;;22.10;99.90;;;;;;5047342;28;20890;-78
2023/09/20 05:29:03;;;;;;;0.00;0.00;;;22.10;99.90;;;;;;5084480;28;20248;-78
2023/09/20 05:31:30;;;;;;;0.00;0.00;;;22.10;99.90;;;;;;5083798;28;20211;-78
2023/09/20 05:33:56;;;;;;;0.00;0.00;;;22.20;99.90;;;;;;5085481;28;20209;-78
2023/09/20 05:36:26;;;;;;;0.00;0.00;;;22.20;99.90;;;;;;5031714;28;20191;-77
2023/09/20 05:38:54;;;;;;;0.00;0.00;;;22.20;99.90;;;;;;5081080;28;20189;-77
2023/09/20 05:41:20;;;;;;;0.00;0.00;;;22.20;99.90;;;;;;5068033;28;20311;-77
2023/09/20 05:43:46;;;;;;;0.00;0.00;;;22.20;99.90;;;;;;5083132;28;20643;-79
2023/09/20 05:46:13;;;;;;;0.00;0.00;;;22.20;99.90;;;;;;5048501;28;20195;-78
2023/09/20 05:48:41;;;;;;;0.00;0.00;;;22.30;99.90;;;;;;5035857;28;20191;-77
2023/09/20 05:51:08;;;;;;;0.00;0.00;;;22.30;99.90;;;;;;5044164;28;20266;-78
2023/09/20 05:53:34;;;;;;;0.00;0.00;;;22.20;99.90;;;;;;5047104;28;20684;-78
2023/09/20 05:56:08;;;;;;;0.00;0.00;;;22.30;99.90;;;;;;5050046;28;20199;-77
2023/09/20 05:58:34;;;;;;;0.00;0.00;;;22.20;99.90;;;;;;5062682;28;20194;-77
2023/09/20 06:01:01;;;;;;;0.00;0.00;;;22.30;99.90;;;;;;5054379;28;20191;-78
2023/09/20 06:03:28;;;;;;;0.00;0.00;;;22.30;99.90;;;;;;5079930;28;20205;-79
2023/09/20 06:05:55;;;;;;;0.00;0.00;;;22.30;99.90;;;;;;5047720;28;20186;-79
2023/09/20 06:08:21;;;;;;;0.00;0.00;;;22.40;99.90;;;;;;5082464;28;20286;-79
2023/09/20 06:10:48;;;;;;;0.00;0.00;;;22.40;99.90;;;;;;5045136;28;20195;-80
2023/09/20 06:13:14;;;;;;;0.00;0.00;;;22.40;99.90;;;;;;5067344;28;20211;-80
2023/09/20 06:15:41;;;;;;;0.00;0.00;;;22.40;99.90;;;;;;5057661;28;20252;-80
2023/09/20 06:18:46;;;;;;;0.00;0.00;;;22.50;99.90;;;;;;5032894;28;20179;-80
2023/09/20 06:21:17;;;;;;;0.00;0.00;;;22.50;99.90;;;;;;5082799;28;20237;-79
2023/09/20 06:23:44;;;;;;;0.00;0.00;;;22.60;99.90;;;;;;5018366;28;20237;-80
2023/09/20 06:26:12;;;;;;;0.00;0.00;;;22.60;99.90;;;;;;5065996;28;20669;-80
2023/09/20 06:28:42;;;;;;;0.00;0.00;;;22.70;99.90;;;;;;5082630;28;20187;-78
2023/09/20 06:31:16;;;;;;;0.00;0.00;;;22.70;99.90;;;;;;5066138;28;20187;-78
2023/09/20 06:33:47;;;;;;;0.00;0.00;;;22.80;99.90;;;;;;5041044;28;20222;-79
2023/09/20 06:36:20;;;;;;;0.00;0.00;;;22.80;99.90;;;;;;5031793;28;20227;-78
2023/09/20 06:38:47;;;;;;;0.00;0.00;;;22.90;99.90;;;;;;5057971;28;20188;-80
2023/09/20 06:41:14;;;;;;;0.00;0.00;;;23.00;99.90;;;;;;5046411;28;20176;-79
2023/09/20 06:43:42;;;;;;;0.00;0.00;;;23.00;99.90;;;;;;5046899;28;20682;-79
2023/09/20 06:46:09;;;;;;;0.00;0.00;;;23.10;99.90;;;;;;5046961;28;20180;-78
2023/09/20 06:48:37;;;;;;;0.00;0.00;;;23.10;99.90;;;;;;5046293;28;20677;-78
2023/09/20 06:51:04;;;;;;;0.00;0.00;;;23.20;99.90;;;;;;5058686;28;20194;-81
2023/09/20 06:53:31;;;;;;;0.00;0.00;;;23.20;99.90;;;;;;5053540;28;20212;-79
2023/09/20 06:56:01;;;;;;;0.00;0.00;;;23.20;99.90;;;;;;5047169;28;20184;-79
2023/09/20 06:58:28;;;;;;;0.00;0.00;;;23.30;99.90;;;;;;5075226;28;20183;-78
2023/09/20 07:00:54;;;;;;;0.00;0.00;;;23.30;99.90;;;;;;5031681;28;20188;-80
2023/09/20 07:03:20;;;;;;;0.00;0.00;;;23.40;99.90;;;;;;5038102;28;20203;-80
2023/09/20 07:05:48;;;;;;;0.00;0.00;;;23.40;99.90;;;;;;5055100;28;20287;-81
2023/09/20 07:08:15;;;;;;;0.00;0.00;;;23.50;99.90;;;;;;5051478;28;20192;-79
2023/09/20 07:10:42;;;;;;;0.00;0.00;;;23.50;99.90;;;;;;5081170;28;20196;-79
2023/09/20 07:13:10;;;;;;;0.00;0.00;;;23.60;99.90;;;;;;5082974;28;20218;-79
2023/09/20 07:15:37;;;;;;;0.00;0.00;;;23.60;99.90;;;;;;5045373;28;20275;-79
2023/09/20 07:18:13;;;;;;;0.00;0.00;;;23.70;99.90;;;;;;5039158;28;20192;-80
2023/09/20 07:20:44;;;;;;;0.00;0.00;;;23.70;99.90;;;;;;5062271;28;20218;-79
2023/09/20 07:23:10;;;;;;;0.00;0.00;;;23.80;99.90;;;;;;5029900;28;20253;-80
2023/09/20 07:25:39;;;;;;;0.00;0.00;;;23.90;99.90;;;;;;5024166;28;20191;-81
2023/09/20 07:28:07;;;;;;;0.00;0.00;;;24.00;99.90;;;;;;5060368;28;20203;-81
2023/09/20 07:30:39;;;;;;;0.00;0.00;;;24.10;99.90;;;;;;5053141;28;20276;-79
2023/09/20 07:34:23;;;;;;;0.00;0.00;;;24.10;99.90;;;;;;5056818;28;20214;-80
2023/09/20 07:38:40;;;;;;;0.08;0.08;;;24.30;99.90;;;;;;4993469;28;20181;-81
2023/09/20 07:41:25;;;;;;;0.00;0.00;;;24.30;99.90;;;;;;4988990;28;20212;-80
2023/09/20 07:44:11;;;;;;;0.00;0.00;;;24.40;99.90;;;;;;4965535;28;20224;-81
2023/09/20 07:46:57;;;;;;;0.00;0.00;;;24.60;99.90;;;;;;4993716;28;20698;-81
2023/09/20 07:49:41;;;;;;;0.00;0.00;;;24.70;99.90;;;;;;4974203;28;20198;-81
2023/09/20 07:52:27;;;;;;;0.00;0.00;;;24.70;99.90;;;;;;4993451;28;20247;-80
2023/09/20 07:55:12;;;;;;;0.00;0.00;;;24.70;99.90;;;;;;4978766;28;20248;-80
2023/09/20 07:57:39;;;;;;;0.00;0.00;;;24.80;99.90;;;;;;4969163;28;20189;-80
2023/09/20 08:00:09;;;;;;;0.00;0.00;;;24.90;99.90;;;;;;4995316;28;20606;-80
2023/09/20 21:33:59;;;;;;;0.00;0.00;;;21.00;99.90;;;;;;5040839;27;20402;-83
2023/09/20 21:36:27;;;;;;;0.00;0.00;;;21.00;99.90;;;;;;5011191;28;20912;-84
2023/09/20 21:38:53;;;;;;;0.00;0.00;;;20.90;99.90;;;;;;5042685;28;20505;-82
2023/09/20 21:41:19;;;;;;;0.00;0.00;;;21.00;99.90;;;;;;5027364;28;21164;-83
2023/09/20 21:43:46;;;;;;;0.00;0.00;;;21.00;99.90;;;;;;5023322;28;20430;-82
2023/09/20 21:46:12;;;;;;;0.00;0.00;;;21.10;99.90;;;;;;5032102;28;20427;-81
2023/09/20 21:48:39;;;;;;;0.00;0.00;;;21.10;99.90;;;;;;5026112;28;20784;-81
2023/09/20 21:51:05;;;;;;;0.00;0.00;;;21.10;99.90;;;;;;5006220;28;20506;-81
2023/09/20 21:53:31;;;;;;;0.00;0.00;;;21.20;99.90;;;;;;5024153;28;20416;-82
2023/09/20 21:55:58;;;;;;;0.00;0.00;;;21.20;99.90;;;;;;5038497;28;20688;-82
2023/09/20 21:58:25;;;;;;;0.00;0.00;;;21.30;99.90;;;;;;5009221;28;20444;-82
2023/09/20 22:00:51;;;;;;;0.00;0.00;;;21.30;99.90;;;;;;5020171;28;20416;-82
2023/09/20 22:03:17;;;;;;;0.00;0.00;;;21.30;99.90;;;;;;5016172;28;20503;-82
2023/09/20 22:05:44;;;;;;;0.00;0.00;;;21.30;99.90;;;;;;5015748;28;20400;-82
2023/09/20 22:08:10;;;;;;;0.00;0.00;;;21.30;99.90;;;;;;5016308;28;20402;-83
2023/09/20 22:10:45;;;;;;;0.00;0.00;;;21.40;99.90;;;;;;5019585;28;20961;-83
2023/09/20 22:13:13;;;;;;;0.00;0.00;;;21.40;99.90;;;;;;5033076;28;20416;-81
2023/09/20 22:15:40;;;;;;;0.00;0.00;;;21.40;99.90;;;;;;5015751;28;20431;-81
2023/09/20 22:18:17;;;;;;;0.00;0.00;;;21.40;99.90;;;;;;5005246;28;20520;-82
2023/09/20 22:20:52;;;;;;;0.00;0.00;;;21.40;99.90;;;;;;5024726;28;20428;-82
2023/09/20 22:23:20;;;;;;;0.00;0.00;;;21.50;99.90;;;;;;5020397;28;20416;-81
2023/09/20 22:25:47;;;;;;;0.00;0.00;;;21.40;99.90;;;;;;5025180;28;20420;-81
2023/09/20 22:28:14;;;;;;;0.00;0.00;;;21.40;99.90;;;;;;5021886;28;21029;-81
2023/09/20 22:30:41;;;;;;;0.00;0.00;;;21.50;99.90;;;;;;5017670;28;20905;-81
2023/09/20 22:33:08;;;;;;;0.00;0.00;;;21.50;99.90;;;;;;5027592;28;20461;-83
2023/09/20 22:35:34;;;;;;;0.00;0.00;;;21.60;99.90;;;;;;5017546;28;20408;-87
2023/09/20 22:38:01;;;;;;;0.00;0.00;;;21.60;99.90;;;;;;5015535;28;20422;-84
2023/09/20 22:40:29;;;;;;;0.00;0.00;;;21.60;99.90;;;;;;5028797;28;20435;-83
2023/09/20 22:42:58;;;;;;;0.00;0.00;;;21.60;99.90;;;;;;5036413;28;20418;-83
2023/09/20 22:47:58;;;;;;;0.00;0.00;;;21.70;99.90;;;;;;5027752;28;20974;-85
2023/09/20 22:50:28;;;;;;;0.00;0.00;;;21.70;99.90;;;;;;5030354;28;20467;-84
2023/09/20 22:53:06;;;;;;;0.00;0.00;;;21.60;99.90;;;;;;5017551;28;20436;-78
2023/09/20 22:55:37;;;;;;;0.00;0.00;;;21.60;99.90;;;;;;5029131;28;20518;-79
2023/09/20 22:58:03;;;;;;;0.00;0.00;;;21.60;99.90;;;;;;5015293;28;20430;-78
2023/09/20 23:00:33;;;;;;;0.00;0.00;;;21.60;99.90;;;;;;5018926;28;20433;-80
2023/09/20 23:03:00;;;;;;;0.00;0.00;;;21.70;99.90;;;;;;5006960;28;20437;-80
2023/09/20 23:05:27;;;;;;;0.00;0.00;;;21.70;99.90;;;;;;5008053;28;20435;-80
2023/09/20 23:07:53;;;;;;;0.00;0.00;;;21.70;99.90;;;;;;5014294;28;20431;-88
2023/09/20 23:10:27;;;;;;;0.00;0.00;;;21.70;99.90;;;;;;5034534;28;20465;-87
2023/09/20 23:12:57;;;;;;;0.00;0.00;;;21.70;99.90;;;;;;5012101;28;20442;-85
2023/09/20 23:15:31;;;;;;;0.00;0.00;;;21.70;99.90;;;;;;5029692;28;21314;-84
2023/09/20 23:18:01;;;;;;;0.00;0.00;;;21.70;99.90;;;;;;5030619;28;21033;-84
2023/09/20 23:20:30;;;;;;;0.00;0.00;;;21.60;99.90;;;;;;5008887;28;20411;-84
2023/09/20 23:23:02;;;;;;;0.00;0.00;;;21.60;99.90;;;;;;5013614;28;20485;-78
2023/09/20 23:25:32;;;;;;;0.00;0.00;;;21.60;99.90;;;;;;5014982;28;20432;-83
2023/09/20 23:28:06;;;;;;;0.00;0.00;;;21.50;99.90;;;;;;5029457;28;20415;-84
2023/09/20 23:30:39;;;;;;;0.00;0.00;;;21.50;99.90;;;;;;5027576;28;20411;-83
2023/09/20 23:33:13;;;;;;;0.00;0.00;;;21.50;99.90;;;;;;5034998;28;20438;-83
2023/09/20 23:35:58;;;;;;;0.00;0.00;;;21.50;99.90;;;;;;5027684;28;20477;-83
2023/09/20 23:38:29;;;;;;;0.00;0.00;;;21.50;99.90;;;;;;5012764;28;20422;-83
2023/09/20 23:41:08;;;;;;;0.00;0.00;;;21.50;99.90;;;;;;5044479;28;20451;-79
2023/09/20 23:43:36;;;;;;;0.00;0.00;;;21.50;99.90;;;;;;5009468;28;20420;-80
2023/09/20 23:46:09;;;;;;;0.00;0.00;;;21.50;99.90;;;;;;5022975;28;20412;-80
2023/09/20 23:48:40;;;;;;;0.00;0.00;;;21.50;99.90;;;;;;5006976;28;20403;-81
2023/09/20 23:51:07;;;;;;;0.00;0.00;;;21.50;99.90;;;;;;5025632;28;20411;-81
2023/09/20 23:53:47;;;;;;;0.00;0.00;;;21.60;99.90;;;;;;5036727;28;20808;-83
2023/09/20 23:56:13;;;;;;;0.00;0.00;;;21.60;99.90;;;;;;5025997;28;20446;-83
2023/09/20 23:58:40;;;;;;;0.00;0.00;;;21.70;99.90;;;;;;5027944;28;20445;-83
